Time;durP1;ratioP1;P1;durP2;ratioP2;P2;SDS_P1;SDS_P2;PMS_P1;PMS_P2;Temp;Humidity;BMP_temperature;BMP_pressure;BME280_temperature;BME280_humidity;BME280_pressure;Samples;Min_cycle;Max_cycle;Signal;HPM_P1;HPM_P2
2022/02/21 00:13:01;;;;;;;;;;;;;;;;;;;;;
2022/02/21 00:16:22;;;;;;;3.37;1.63;;;9.20;99.90;;;;;;4863741;29;20292;-88
2022/02/21 00:23:08;;;;;;;4.70;1.60;;;9.10;99.90;;;;;;4869233;29;20245;-89
2022/02/21 00:28:48;;;;;;;3.30;1.70;;;9.00;99.90;;;;;;4963259;28;20226;-89
2022/02/21 00:31:41;;;;;;;2.30;1.80;;;9.10;99.90;;;;;;4945906;29;20200;-90
2022/02/21 00:34:41;;;;;;;2.83;1.80;;;9.10;99.90;;;;;;4945422;29;20303;-89
2022/02/21 00:37:52;;;;;;;2.93;1.50;;;9.10;99.90;;;;;;4923671;29;20265;-89
2022/02/21 00:40:18;;;;;;;3.27;1.80;;;9.00;99.90;;;;;;4904040;29;20206;-89
2022/02/21 00:43:07;;;;;;;5.83;1.90;;;9.00;99.90;;;;;;4918235;29;20288;-89
2022/02/21 00:45:54;;;;;;;4.13;1.80;;;8.90;99.90;;;;;;4930610;29;20234;-89
2022/02/21 00:49:03;;;;;;;6.13;2.20;;;8.90;99.90;;;;;;4935475;29;20250;-89
2022/02/21 00:52:43;;;;;;;6.30;2.43;;;8.90;99.90;;;;;;4954156;29;20335;-89
2022/02/21 00:55:54;;;;;;;;;;;;;;;;;;;;;
2022/02/21 00:59:09;;;;;;;2.87;1.80;;;8.90;99.90;;;;;;4959419;28;20280;-90
2022/02/21 01:05:07;;;;;;;5.57;1.83;;;8.80;99.90;;;;;;5072810;23;20232;-90
2022/02/21 01:07:33;;;;;;;3.30;1.93;;;8.90;99.90;;;;;;5008098;28;20200;-91
2022/02/21 01:09:59;;;;;;;3.87;2.00;;;8.90;99.90;;;;;;5017270;28;20189;-90
2022/02/21 01:12:25;;;;;;;6.53;2.23;;;9.10;99.90;;;;;;5021447;28;20190;-90
2022/02/21 01:14:51;;;;;;;3.33;2.33;;;9.10;99.90;;;;;;5020875;28;20197;-90
2022/02/21 01:17:18;;;;;;;5.23;2.60;;;9.20;99.90;;;;;;5022703;28;20181;-90
2022/02/21 01:19:44;;;;;;;4.77;2.00;;;9.20;99.90;;;;;;5016738;28;20185;-91
2022/02/21 01:22:09;;;;;;;3.57;2.33;;;9.20;99.90;;;;;;5007210;28;20239;-90
2022/02/21 01:24:35;;;;;;;8.07;2.37;;;9.30;99.90;;;;;;5021834;28;20208;-91
2022/02/21 01:27:01;;;;;;;5.43;1.80;;;9.20;99.90;;;;;;5023205;28;20596;-90
2022/02/21 01:29:26;;;;;;;3.73;1.67;;;9.20;99.90;;;;;;5018625;28;20202;-90
2022/02/21 01:31:55;;;;;;;3.03;1.63;;;9.30;99.90;;;;;;5004423;28;20216;-90
2022/02/21 01:34:21;;;;;;;2.73;1.80;;;9.30;99.90;;;;;;5016439;28;20224;-91
2022/02/21 01:36:48;;;;;;;4.03;2.30;;;9.20;99.90;;;;;;5008665;28;20200;-91
2022/02/21 01:39:14;;;;;;;3.77;2.00;;;9.20;99.90;;;;;;5022998;28;20279;-91
2022/02/21 01:41:41;;;;;;;3.43;1.80;;;9.40;99.90;;;;;;4997481;28;20305;-90
2022/02/21 01:44:10;;;;;;;5.30;2.07;;;9.40;99.90;;;;;;5021066;28;20259;-91
2022/02/21 01:46:39;;;;;;;3.57;1.73;;;9.40;99.90;;;;;;5001963;28;20196;-91
2022/02/21 01:49:07;;;;;;;4.00;1.73;;;9.50;99.90;;;;;;5007731;28;20197;-89
2022/02/21 01:51:34;;;;;;;2.70;1.87;;;9.50;99.90;;;;;;5016890;28;20200;-91
2022/02/21 01:54:00;;;;;;;3.77;2.10;;;9.50;99.90;;;;;;5000758;28;20244;-91
2022/02/21 01:56:28;;;;;;;4.13;2.17;;;9.50;99.90;;;;;;5003648;28;20200;-91
2022/02/21 01:58:53;;;;;;;5.17;1.80;;;9.40;99.90;;;;;;5017395;28;20196;-90
2022/02/21 02:01:19;;;;;;;5.30;2.10;;;9.40;99.90;;;;;;5019883;28;20209;-91
2022/02/21 02:03:46;;;;;;;3.10;1.80;;;9.50;99.90;;;;;;5023542;28;20209;-92
2022/02/21 02:06:12;;;;;;;4.07;1.90;;;9.40;99.90;;;;;;5018770;28;20271;-91
2022/02/21 02:08:38;;;;;;;6.70;2.00;;;9.60;99.90;;;;;;5022139;28;20196;-90
2022/02/21 02:11:04;;;;;;;4.10;1.63;;;9.60;99.90;;;;;;5019768;28;20198;-91
2022/02/21 02:13:30;;;;;;;3.77;1.63;;;9.50;99.90;;;;;;5020174;28;20295;-90
2022/02/21 02:15:55;;;;;;;5.03;1.90;;;9.60;99.90;;;;;;4986134;28;20197;-91
2022/02/21 02:18:22;;;;;;;2.53;1.67;;;9.60;99.90;;;;;;5038792;28;20189;-90
2022/02/21 02:20:49;;;;;;;1.97;1.47;;;9.60;99.90;;;;;;5043687;28;20209;-90
2022/02/21 02:23:15;;;;;;;3.40;1.67;;;9.50;99.90;;;;;;5023067;28;20240;-89
2022/02/21 02:25:40;;;;;;;3.67;1.80;;;9.50;99.90;;;;;;5038783;28;20632;-90
2022/02/21 02:28:07;;;;;;;4.87;1.87;;;9.40;99.90;;;;;;5025553;28;20204;-90
2022/02/21 02:30:33;;;;;;;3.63;1.90;;;9.40;99.90;;;;;;5019943;28;20188;-90
2022/02/21 02:32:59;;;;;;;5.77;1.70;;;9.30;99.90;;;;;;5011458;28;20212;-90
2022/02/21 02:35:32;;;;;;;7.37;2.17;;;9.10;99.90;;;;;;5024765;28;20201;-90
2022/02/21 02:37:58;;;;;;;5.77;1.93;;;9.00;99.90;;;;;;5011217;28;20220;-91
2022/02/21 02:40:24;;;;;;;3.50;1.87;;;8.90;99.90;;;;;;5017946;28;20272;-90
2022/02/21 02:42:50;;;;;;;3.93;1.90;;;9.00;99.90;;;;;;5025300;28;20216;-89
2022/02/21 02:45:15;;;;;;;2.70;1.60;;;8.90;99.90;;;;;;5026011;28;20288;-89
2022/02/21 02:47:41;;;;;;;3.90;1.83;;;8.90;99.90;;;;;;4991287;28;20232;-89
2022/02/21 02:50:08;;;;;;;3.97;2.27;;;8.80;99.90;;;;;;5020269;28;20201;-90
2022/02/21 02:52:34;;;;;;;6.87;2.10;;;8.90;99.90;;;;;;5006985;28;20201;-90
2022/02/21 02:54:59;;;;;;;8.50;1.70;;;8.90;99.90;;;;;;5021142;28;20273;-91
2022/02/21 02:57:25;;;;;;;6.97;2.30;;;8.60;99.90;;;;;;5009836;28;20271;-90
2022/02/21 02:59:53;;;;;;;2.90;1.50;;;7.50;99.90;;;;;;5021809;28;20205;-91
2022/02/21 03:02:19;;;;;;;3.13;1.20;;;6.90;99.90;;;;;;5019186;28;20296;-90
2022/02/21 03:04:44;;;;;;;3.83;0.93;;;6.70;99.90;;;;;;5007367;28;20289;-90
2022/02/21 03:07:10;;;;;;;1.10;1.00;;;6.70;99.90;;;;;;4997976;28;20208;-90
2022/02/21 03:09:36;;;;;;;3.03;0.77;;;6.60;99.90;;;;;;5046351;28;20185;-92
2022/02/21 03:12:02;;;;;;;0.90;0.90;;;6.50;99.90;;;;;;5011144;28;20311;-90
2022/02/21 03:14:27;;;;;;;2.40;1.10;;;6.50;99.90;;;;;;5010921;28;20209;-90
2022/02/21 03:16:53;;;;;;;2.33;1.07;;;6.40;99.90;;;;;;5024706;28;20240;-90
2022/02/21 03:19:25;;;;;;;2.00;0.93;;;6.30;99.90;;;;;;5008325;28;20203;-90
2022/02/21 03:21:53;;;;;;;2.07;1.07;;;6.30;99.90;;;;;;4994677;28;20221;-90
2022/02/21 03:24:18;;;;;;;5.03;2.00;;;6.30;99.90;;;;;;5008754;28;20309;-89
2022/02/21 03:26:44;;;;;;;2.23;1.30;;;6.20;99.00;;;;;;5022824;28;20233;-90
2022/02/21 03:29:10;;;;;;;2.30;1.30;;;6.20;99.90;;;;;;5018806;28;20254;-90
2022/02/21 03:31:35;;;;;;;5.43;1.70;;;6.20;99.90;;;;;;5009993;28;20681;-90
2022/02/21 03:34:01;;;;;;;3.13;1.43;;;6.20;99.90;;;;;;5006916;28;20227;-90
2022/02/21 03:36:27;;;;;;;1.53;1.40;;;6.20;94.90;;;;;;5019850;28;20191;-90
2022/02/21 03:38:53;;;;;;;3.07;1.17;;;6.20;92.70;;;;;;4993517;28;20236;-90
2022/02/21 03:41:18;;;;;;;3.80;1.53;;;6.20;88.70;;;;;;5006451;28;20241;-90
2022/02/21 03:43:44;;;;;;;4.37;1.50;;;6.20;89.60;;;;;;5025274;28;20554;-89
2022/02/21 03:46:10;;;;;;;2.37;1.23;;;6.30;88.40;;;;;;5016643;28;20239;-90
2022/02/21 03:48:35;;;;;;;5.40;1.77;;;6.40;83.50;;;;;;5006588;28;20200;-89
2022/02/21 03:51:01;;;;;;;3.20;1.60;;;6.50;83.50;;;;;;5019846;28;20204;-89
2022/02/21 03:53:27;;;;;;;4.63;1.53;;;6.40;85.80;;;;;;5034742;28;20248;-89
2022/02/21 03:55:55;;;;;;;2.83;1.40;;;6.40;85.80;;;;;;5020675;28;20272;-89
2022/02/21 03:58:21;;;;;;;3.63;1.77;;;6.40;86.00;;;;;;5009452;28;20346;-89
2022/02/21 04:00:47;;;;;;;4.00;1.70;;;6.40;88.20;;;;;;5009683;28;20223;-89
2022/02/21 04:03:12;;;;;;;4.00;1.90;;;6.40;89.40;;;;;;5030317;28;20232;-89
2022/02/21 04:05:38;;;;;;;5.70;2.10;;;6.30;90.30;;;;;;5026848;28;20263;-89
2022/02/21 04:08:04;;;;;;;5.00;1.70;;;6.20;90.90;;;;;;5023096;28;20193;-89
2022/02/21 04:10:30;;;;;;;5.83;1.90;;;6.10;94.00;;;;;;5023059;28;20272;-89
2022/02/21 04:12:55;;;;;;;5.10;1.67;;;6.10;94.00;;;;;;5021690;28;20244;-89
2022/02/21 04:15:21;;;;;;;5.13;1.70;;;6.10;94.30;;;;;;5021147;28;20194;-89
2022/02/21 04:17:52;;;;;;;8.03;2.00;;;6.10;94.40;;;;;;5020331;28;20243;-89
2022/02/21 04:20:23;;;;;;;4.30;1.83;;;6.10;94.60;;;;;;5002427;28;20212;-89
2022/02/21 04:22:49;;;;;;;7.23;2.00;;;6.10;95.90;;;;;;5023542;28;20213;-89
2022/02/21 04:25:15;;;;;;;5.53;1.93;;;6.10;96.90;;;;;;5021285;28;20189;-89
2022/02/21 04:27:52;;;;;;;5.87;2.40;;;6.10;97.10;;;;;;5022381;28;20884;-89
2022/02/21 04:30:20;;;;;;;6.30;2.27;;;6.00;97.20;;;;;;5002013;28;20712;-90
2022/02/21 04:32:47;;;;;;;6.13;2.53;;;6.00;96.40;;;;;;5021462;28;20217;-88
2022/02/21 04:35:14;;;;;;;6.83;2.07;;;6.10;97.00;;;;;;5020441;28;20227;-90
2022/02/21 04:37:40;;;;;;;4.83;2.13;;;6.00;97.20;;;;;;5020100;28;20189;-89
2022/02/21 04:40:09;;;;;;;5.87;2.30;;;5.90;98.70;;;;;;5004619;28;20783;-89
2022/02/21 04:42:36;;;;;;;7.93;2.50;;;5.90;97.70;;;;;;5022967;28;20212;-89
2022/02/21 04:45:03;;;;;;;4.43;2.00;;;5.80;99.90;;;;;;5020541;28;20817;-89
2022/02/21 04:47:29;;;;;;;7.63;2.20;;;5.70;99.90;;;;;;5007582;28;20193;-90
2022/02/21 04:49:54;;;;;;;6.80;2.47;;;5.80;97.60;;;;;;4990828;28;20193;-90
2022/02/21 04:52:20;;;;;;;5.07;2.37;;;6.00;96.80;;;;;;5007236;28;20223;-90
2022/02/21 04:54:46;;;;;;;5.73;2.07;;;6.00;97.00;;;;;;4996223;28;20314;-90
2022/02/21 04:57:11;;;;;;;7.03;2.47;;;6.00;96.50;;;;;;5023429;28;20277;-90
2022/02/21 04:59:37;;;;;;;7.50;3.00;;;6.00;95.60;;;;;;5012569;28;20358;-88
2022/02/21 05:02:04;;;;;;;7.10;2.30;;;6.00;96.50;;;;;;5044115;28;20263;-88
2022/02/21 05:04:30;;;;;;;6.90;2.63;;;5.90;96.60;;;;;;5038637;28;20274;-88
2022/02/21 05:06:55;;;;;;;9.17;2.60;;;6.00;94.60;;;;;;5024569;28;20197;-89
2022/02/21 05:09:21;;;;;;;6.83;2.60;;;6.20;94.20;;;;;;5047527;28;20207;-88
2022/02/21 05:11:47;;;;;;;5.00;2.47;;;6.10;92.00;;;;;;5020084;28;20854;-89
2022/02/21 05:14:13;;;;;;;6.83;2.90;;;6.20;87.90;;;;;;5018675;28;20242;-88
2022/02/21 05:16:38;;;;;;;4.80;2.30;;;6.40;89.60;;;;;;5020438;28;20205;-88
2022/02/21 05:19:04;;;;;;;6.73;2.13;;;6.40;90.30;;;;;;5012641;28;20192;-89
2022/02/21 05:21:30;;;;;;;7.17;2.63;;;6.40;87.60;;;;;;5023783;28;20225;-89
2022/02/21 05:23:57;;;;;;;8.70;3.13;;;6.40;90.00;;;;;;5023188;28;20227;-89
2022/02/21 05:26:23;;;;;;;5.77;2.80;;;6.30;92.00;;;;;;5007371;28;20188;-89
2022/02/21 05:28:50;;;;;;;15.57;10.17;;;6.40;88.10;;;;;;5021961;28;20589;-88
2022/02/21 05:31:16;;;;;;;8.47;3.20;;;6.40;84.00;;;;;;5018770;28;20181;-89
2022/02/21 05:33:41;;;;;;;8.77;2.80;;;6.50;85.30;;;;;;5021084;28;20219;-89
2022/02/21 05:36:07;;;;;;;27.87;15.17;;;6.50;85.80;;;;;;5018882;28;20193;-89
2022/02/21 05:38:33;;;;;;;10.97;2.73;;;6.50;86.10;;;;;;5020025;28;20189;-89
2022/02/21 05:40:58;;;;;;;7.63;2.70;;;6.50;87.50;;;;;;5023697;28;20212;-88
2022/02/21 05:43:24;;;;;;;5.43;2.40;;;6.40;88.20;;;;;;5022136;28;20703;-88
2022/02/21 05:45:50;;;;;;;6.07;2.60;;;6.40;88.30;;;;;;5003116;28;20707;-89
2022/02/21 05:48:15;;;;;;;5.70;2.33;;;6.30;88.40;;;;;;5019898;28;20726;-89
2022/02/21 05:50:41;;;;;;;6.57;2.77;;;6.30;85.30;;;;;;5021904;28;20232;-89
2022/02/21 05:53:07;;;;;;;6.70;3.10;;;6.30;86.00;;;;;;5005403;28;20343;-89
2022/02/21 05:55:32;;;;;;;11.30;6.07;;;6.30;86.80;;;;;;5019188;28;20191;-89
2022/02/21 05:57:59;;;;;;;12.10;3.27;;;6.20;85.60;;;;;;5001973;28;20205;-88
2022/02/21 06:00:26;;;;;;;15.70;5.83;;;6.10;85.00;;;;;;5001540;28;20194;-89
2022/02/21 06:02:52;;;;;;;13.20;4.90;;;6.20;86.00;;;;;;5001623;28;20292;-88
2022/02/21 06:05:18;;;;;;;7.73;3.33;;;6.20;85.30;;;;;;4991351;28;20189;-89
2022/02/21 06:07:44;;;;;;;11.07;3.80;;;6.10;84.70;;;;;;5022930;28;20247;-88
2022/02/21 06:10:10;;;;;;;15.90;5.80;;;6.00;86.50;;;;;;5007677;28;20193;-89
2022/02/21 06:12:35;;;;;;;7.73;3.67;;;5.90;85.00;;;;;;5025546;28;20197;-88
2022/02/21 06:15:01;;;;;;;10.67;3.73;;;5.90;83.30;;;;;;5006662;28;20965;-86
2022/02/21 06:17:27;;;;;;;13.57;3.00;;;5.90;81.90;;;;;;5025326;28;20197;-86
2022/02/21 06:19:53;;;;;;;6.70;2.57;;;6.00;82.90;;;;;;5009183;28;20221;-88
2022/02/21 06:22:19;;;;;;;9.93;3.07;;;5.90;85.80;;;;;;5025430;28;20267;-88
2022/02/21 06:24:45;;;;;;;6.70;3.40;;;5.80;83.50;;;;;;5028995;28;20584;-87
2022/02/21 06:27:11;;;;;;;8.57;3.97;;;5.80;83.00;;;;;;5029816;28;20185;-88
2022/02/21 06:29:37;;;;;;;9.17;3.50;;;5.80;82.70;;;;;;5010942;28;20200;-89
2022/02/21 06:32:03;;;;;;;12.00;3.70;;;5.80;81.70;;;;;;5011539;28;20193;-88
2022/02/21 06:34:29;;;;;;;9.93;3.50;;;5.80;80.80;;;;;;5026299;28;20838;-87
2022/02/21 06:36:54;;;;;;;8.33;3.47;;;5.80;81.00;;;;;;5010432;28;20189;-88
2022/02/21 06:39:21;;;;;;;6.20;2.93;;;5.70;79.70;;;;;;4995004;28;20696;-88
2022/02/21 06:41:48;;;;;;;9.53;3.00;;;5.70;80.40;;;;;;5029158;28;20209;-88
2022/02/21 06:44:13;;;;;;;9.67;3.30;;;5.60;81.40;;;;;;4995219;28;20834;-87
2022/02/21 06:46:43;;;;;;;8.47;3.50;;;5.50;81.80;;;;;;5010063;28;20280;-89
2022/02/21 06:49:12;;;;;;;12.13;3.70;;;5.50;81.50;;;;;;5027732;28;20327;-86
2022/02/21 06:51:38;;;;;;;9.37;3.10;;;5.50;80.10;;;;;;5028101;28;20197;-88
2022/02/21 06:54:05;;;;;;;12.33;3.10;;;5.50;81.20;;;;;;5025653;28;20877;-86
2022/02/21 06:56:32;;;;;;;7.50;3.10;;;5.50;80.70;;;;;;5027973;28;20188;-88
2022/02/21 06:58:58;;;;;;;8.47;2.93;;;5.40;81.70;;;;;;5026664;28;20962;-88
2022/02/21 07:01:24;;;;;;;9.80;3.23;;;5.40;81.70;;;;;;5023733;28;20224;-87
2022/02/21 07:03:50;;;;;;;12.40;3.90;;;5.50;82.10;;;;;;5006582;28;20217;-88
2022/02/21 07:06:17;;;;;;;10.10;3.27;;;5.50;81.60;;;;;;5007985;28;20720;-87
2022/02/21 07:08:43;;;;;;;14.17;5.53;;;5.40;81.90;;;;;;5023566;28;20208;-87
2022/02/21 07:11:09;;;;;;;8.17;3.13;;;5.40;81.70;;;;;;5023895;28;20208;-87
2022/02/21 07:13:36;;;;;;;11.07;3.50;;;5.40;82.20;;;;;;5028006;28;20217;-86
2022/02/21 07:16:02;;;;;;;12.17;4.17;;;5.50;82.70;;;;;;5023612;28;20201;-87
2022/02/21 07:18:27;;;;;;;11.97;3.90;;;5.50;85.00;;;;;;5017254;28;20300;-88
2022/02/21 07:20:53;;;;;;;8.60;3.37;;;5.50;83.30;;;;;;5025736;28;20205;-86
2022/02/21 07:23:19;;;;;;;9.43;3.57;;;5.60;83.40;;;;;;5020900;28;20243;-86
2022/02/21 07:25:45;;;;;;;13.53;4.33;;;5.60;83.60;;;;;;5024686;28;20205;-86
2022/02/21 07:28:12;;;;;;;8.80;3.33;;;5.60;83.60;;;;;;5007388;28;20227;-89
2022/02/21 07:30:38;;;;;;;8.00;3.20;;;5.70;84.00;;;;;;5020881;28;20285;-86
2022/02/21 07:33:04;;;;;;;8.17;2.93;;;5.60;83.80;;;;;;5025339;28;20288;-86
2022/02/21 07:35:30;;;;;;;13.63;3.40;;;5.60;82.80;;;;;;5020286;28;20188;-86
2022/02/21 07:37:55;;;;;;;11.47;3.60;;;5.60;83.10;;;;;;5023115;28;20193;-88
2022/02/21 07:40:21;;;;;;;10.80;4.10;;;5.70;83.30;;;;;;5024647;28;20220;-88
2022/02/21 07:42:50;;;;;;;13.17;3.50;;;5.70;82.40;;;;;;5005617;28;20578;-88
2022/02/21 07:45:17;;;;;;;9.33;3.23;;;5.70;83.30;;;;;;5026988;28;20177;-87
2022/02/21 07:47:44;;;;;;;10.60;3.50;;;5.70;83.70;;;;;;5014965;28;20661;-87
2022/02/21 07:50:10;;;;;;;9.87;3.17;;;5.70;82.50;;;;;;5008088;28;20238;-88
2022/02/21 07:52:36;;;;;;;11.60;3.47;;;5.70;83.20;;;;;;5024305;28;20196;-88
2022/02/21 07:55:02;;;;;;;8.20;2.70;;;5.80;82.90;;;;;;5018421;28;20197;-87
2022/02/21 07:57:27;;;;;;;12.70;4.07;;;5.80;81.60;;;;;;5021614;28;20743;-86
2022/02/21 07:59:53;;;;;;;7.63;3.27;;;5.90;82.70;;;;;;5002350;28;20681;-87
2022/02/21 08:02:19;;;;;;;8.00;2.97;;;5.90;83.20;;;;;;5008671;28;20617;-87
2022/02/21 08:04:44;;;;;;;7.87;2.57;;;5.90;84.30;;;;;;5014336;28;20351;-85
2022/02/21 08:07:10;;;;;;;12.23;3.17;;;6.00;83.30;;;;;;5021246;28;20239;-88
2022/02/21 08:09:37;;;;;;;10.20;3.17;;;6.00;82.70;;;;;;5001718;28;20192;-87
2022/02/21 08:12:06;;;;;;;10.50;2.77;;;6.00;82.50;;;;;;5004104;28;20697;-85
2022/02/21 08:14:33;;;;;;;10.63;3.37;;;6.00;82.30;;;;;;5020408;28;20240;-88
2022/02/21 08:16:58;;;;;;;14.27;3.50;;;5.90;82.20;;;;;;5022017;28;20197;-86
2022/02/21 08:19:24;;;;;;;12.37;4.40;;;5.90;83.90;;;;;;5023442;28;20199;-87
2022/02/21 08:21:51;;;;;;;9.07;3.33;;;5.80;83.30;;;;;;5022449;28;20304;-87
2022/02/21 08:24:18;;;;;;;10.27;3.63;;;5.90;83.20;;;;;;5018869;28;20205;-86
2022/02/21 08:26:43;;;;;;;13.10;3.70;;;5.90;83.60;;;;;;5019153;28;20184;-87
2022/02/21 08:29:09;;;;;;;10.70;3.33;;;5.90;84.30;;;;;;5030868;28;20193;-85
2022/02/21 08:31:35;;;;;;;11.80;3.77;;;5.90;82.50;;;;;;5027045;28;20201;-87
2022/02/21 08:34:01;;;;;;;9.73;3.23;;;5.90;83.10;;;;;;5000358;28;20396;-87
2022/02/21 08:36:27;;;;;;;12.17;3.67;;;6.00;83.10;;;;;;5026840;28;20243;-86
2022/02/21 08:38:53;;;;;;;9.43;3.07;;;6.10;83.10;;;;;;5025527;28;20201;-87
2022/02/21 08:41:19;;;;;;;7.97;2.90;;;6.20;81.30;;;;;;5023474;28;20221;-86
2022/02/21 08:43:45;;;;;;;8.43;2.23;;;6.20;80.60;;;;;;5028813;28;20912;-88
2022/02/21 08:46:11;;;;;;;8.73;3.17;;;6.20;80.60;;;;;;5029018;28;20196;-87
2022/02/21 08:48:37;;;;;;;9.70;2.60;;;6.20;81.40;;;;;;5031635;28;20187;-86
2022/02/21 08:51:03;;;;;;;9.87;2.60;;;6.20;81.00;;;;;;5009371;28;20208;-86
2022/02/21 08:53:29;;;;;;;7.47;2.20;;;6.20;79.40;;;;;;5031748;28;20215;-87
2022/02/21 08:55:55;;;;;;;2.90;1.77;;;6.20;80.00;;;;;;5028240;28;20196;-85
2022/02/21 08:58:21;;;;;;;13.37;6.63;;;6.10;79.30;;;;;;5018968;28;20200;-87
2022/02/21 09:00:47;;;;;;;7.03;2.53;;;6.20;81.40;;;;;;5037883;28;20201;-86
2022/02/21 09:03:12;;;;;;;5.60;1.60;;;6.10;80.70;;;;;;5038394;28;20200;-84
2022/02/21 09:05:39;;;;;;;4.10;1.80;;;6.00;81.10;;;;;;5035540;28;20902;-87
2022/02/21 09:08:06;;;;;;;3.43;1.53;;;5.90;85.10;;;;;;5038275;28;20193;-86
2022/02/21 09:10:32;;;;;;;5.53;1.83;;;5.80;87.70;;;;;;5019451;28;20193;-87
2022/02/21 09:12:59;;;;;;;2.90;1.40;;;5.60;91.00;;;;;;5033193;28;20220;-87
2022/02/21 09:15:26;;;;;;;4.60;1.70;;;5.50;90.80;;;;;;5003046;28;20194;-86
2022/02/21 09:17:52;;;;;;;4.23;1.70;;;5.30;93.30;;;;;;5028060;28;20197;-87
2022/02/21 09:20:18;;;;;;;5.20;1.90;;;5.30;92.80;;;;;;5031560;28;20173;-87
2022/02/21 09:22:45;;;;;;;6.43;2.37;;;5.40;95.20;;;;;;5011161;28;20225;-87
2022/02/21 09:25:11;;;;;;;4.57;2.50;;;5.60;95.80;;;;;;5025179;28;20251;-86
2022/02/21 09:27:38;;;;;;;4.43;2.03;;;5.70;93.50;;;;;;5032109;28;20204;-86
2022/02/21 09:30:05;;;;;;;7.90;2.90;;;5.70;93.80;;;;;;5034561;28;20197;-88
2022/02/21 09:32:31;;;;;;;7.33;2.60;;;5.80;92.30;;;;;;5031255;28;20189;-87
2022/02/21 09:34:57;;;;;;;7.97;2.83;;;5.70;93.40;;;;;;5025339;28;20204;-84
2022/02/21 09:37:25;;;;;;;6.77;2.63;;;5.70;92.90;;;;;;5039482;28;20575;-87
2022/02/21 09:39:51;;;;;;;6.53;2.10;;;5.80;92.70;;;;;;5026882;28;20215;-87
2022/02/21 09:42:17;;;;;;;8.63;2.60;;;5.80;92.60;;;;;;5032972;28;20687;-87
2022/02/21 09:44:43;;;;;;;8.27;2.97;;;5.80;92.30;;;;;;5024419;28;20204;-86
2022/02/21 09:47:13;;;;;;;11.07;3.40;;;5.90;91.20;;;;;;5024720;28;20901;-87
2022/02/21 09:49:39;;;;;;;8.93;2.80;;;6.00;90.90;;;;;;5014994;28;20185;-86
2022/02/21 09:52:05;;;;;;;12.43;3.70;;;6.00;90.60;;;;;;4999015;28;20189;-87
2022/02/21 09:54:31;;;;;;;6.93;2.93;;;5.90;94.60;;;;;;5032343;28;20205;-87
2022/02/21 09:56:58;;;;;;;8.90;3.47;;;5.70;97.40;;;;;;5025422;28;20280;-88
2022/02/21 09:59:24;;;;;;;6.70;2.37;;;5.40;99.70;;;;;;4980024;28;20189;-88
2022/02/21 10:01:51;;;;;;;11.30;3.83;;;5.30;99.90;;;;;;4995984;28;20946;-88
2022/02/21 10:04:27;;;;;;;8.63;3.23;;;5.30;99.90;;;;;;5010235;28;20201;-87
2022/02/21 10:07:05;;;;;;;4.90;2.23;;;5.30;99.90;;;;;;5009927;28;20331;-90
2022/02/21 10:09:30;;;;;;;7.73;2.40;;;5.20;99.90;;;;;;4992337;28;20248;-86
2022/02/21 10:11:58;;;;;;;6.57;3.33;;;5.30;99.90;;;;;;5023045;28;20205;-89
2022/02/21 10:14:29;;;;;;;8.70;2.17;;;5.30;99.10;;;;;;5030116;28;20227;-86
2022/02/21 10:16:57;;;;;;;10.20;2.90;;;5.30;99.50;;;;;;5012839;28;20251;-88
2022/02/21 10:19:32;;;;;;;11.77;2.60;;;5.40;99.10;;;;;;5008536;28;20212;-88
2022/02/21 10:22:01;;;;;;;8.73;2.90;;;5.40;97.60;;;;;;5030591;28;20224;-87
2022/02/21 10:24:44;;;;;;;9.00;2.90;;;5.60;96.80;;;;;;5030461;28;20262;-87
2022/02/21 10:27:24;;;;;;;7.53;2.90;;;5.90;99.50;;;;;;5033550;28;20288;-86
2022/02/21 10:30:07;;;;;;;8.43;2.60;;;6.00;95.10;;;;;;5026041;28;20746;-86
2022/02/21 10:32:35;;;;;;;13.67;3.33;;;6.10;93.40;;;;;;5018900;28;20188;-85
2022/02/21 10:35:17;;;;;;;9.40;3.10;;;6.00;93.40;;;;;;5021951;28;20192;-86
2022/02/21 10:37:45;;;;;;;6.23;3.03;;;6.00;92.20;;;;;;5037807;28;20308;-86
2022/02/21 10:40:18;;;;;;;12.63;3.00;;;6.10;86.30;;;;;;5038726;28;20197;-85
2022/02/21 10:43:00;;;;;;;7.17;2.73;;;6.20;86.20;;;;;;5041737;28;20238;-88
2022/02/21 10:45:29;;;;;;;9.03;2.83;;;6.20;87.90;;;;;;5007981;28;20208;-88
2022/02/21 10:48:10;;;;;;;5.63;2.20;;;6.60;83.60;;;;;;5039096;28;20180;-88
2022/02/21 10:50:38;;;;;;;7.70;2.37;;;6.60;81.40;;;;;;5040571;28;20179;-88
2022/02/21 10:53:11;;;;;;;7.77;2.53;;;6.60;80.70;;;;;;5042563;28;20197;-86
2022/02/21 10:55:40;;;;;;;5.37;2.07;;;6.60;82.00;;;;;;5036607;28;20253;-88
2022/02/21 10:58:20;;;;;;;11.50;2.53;;;6.70;79.60;;;;;;5024709;28;20197;-88
2022/02/21 11:00:49;;;;;;;9.07;2.70;;;6.80;78.90;;;;;;5041378;28;20188;-89
2022/02/21 11:03:26;;;;;;;5.00;2.30;;;6.80;78.20;;;;;;5008461;28;20647;-85
2022/02/21 11:05:55;;;;;;;8.73;2.90;;;6.80;79.60;;;;;;5029909;28;20719;-89
2022/02/21 11:08:21;;;;;;;5.87;2.50;;;6.80;78.00;;;;;;5024711;28;20227;-89
2022/02/21 11:11:09;;;;;;;5.80;2.40;;;6.70;77.30;;;;;;5015253;28;20185;-88
2022/02/21 11:13:36;;;;;;;5.57;2.83;;;6.70;77.20;;;;;;5031382;28;20219;-88
2022/02/21 11:16:03;;;;;;;6.77;2.50;;;6.60;78.30;;;;;;5023139;28;20219;-87
2022/02/21 11:18:29;;;;;;;9.10;2.87;;;6.60;76.70;;;;;;5032426;28;20184;-88
2022/02/21 11:20:55;;;;;;;6.53;2.60;;;6.60;80.20;;;;;;5037870;28;20212;-89
2022/02/21 11:23:21;;;;;;;7.77;3.20;;;6.50;77.70;;;;;;5031436;28;20255;-88
2022/02/21 11:26:22;;;;;;;6.93;2.80;;;6.50;79.00;;;;;;5040478;28;21590;-88
2022/02/21 11:28:59;;;;;;;5.77;2.40;;;6.60;78.20;;;;;;5039355;28;20191;-87
2022/02/21 11:31:29;;;;;;;6.67;2.47;;;6.70;76.90;;;;;;5032310;28;20196;-88
2022/02/21 11:34:01;;;;;;;7.07;2.57;;;6.70;78.40;;;;;;5035344;28;20251;-87
2022/02/21 11:36:28;;;;;;;7.90;2.73;;;6.60;75.60;;;;;;5018502;28;20283;-88
2022/02/21 11:38:55;;;;;;;7.10;2.30;;;6.60;77.20;;;;;;5043786;28;20177;-86
2022/02/21 11:41:31;;;;;;;5.70;2.23;;;6.70;76.60;;;;;;5042515;28;20228;-89
2022/02/21 11:43:57;;;;;;;9.60;3.30;;;6.70;77.30;;;;;;5029455;28;20958;-87
2022/02/21 11:46:24;;;;;;;8.90;2.53;;;6.70;77.40;;;;;;5038295;28;20187;-86
2022/02/21 11:49:06;;;;;;;4.83;2.30;;;6.70;76.00;;;;;;5032666;28;20186;-89
2022/02/21 11:51:36;;;;;;;9.63;2.87;;;6.70;74.20;;;;;;5030561;28;20275;-87
2022/02/21 11:54:11;;;;;;;10.63;2.73;;;6.80;73.70;;;;;;5036201;28;20226;-88
2022/02/21 11:56:49;;;;;;;6.60;2.47;;;6.80;72.20;;;;;;5015386;28;20533;-87
2022/02/21 11:59:21;;;;;;;7.87;2.53;;;6.80;73.10;;;;;;5033157;28;20223;-87
2022/02/21 12:01:48;;;;;;;7.03;2.60;;;6.90;71.70;;;;;;5035926;28;20440;-88
2022/02/21 12:04:18;;;;;;;7.83;2.67;;;6.90;69.80;;;;;;5012129;28;20215;-86
2022/02/21 12:07:00;;;;;;;8.60;3.00;;;6.90;71.00;;;;;;5035278;28;20197;-86
2022/02/21 12:09:27;;;;;;;5.10;2.10;;;7.10;72.70;;;;;;5019014;28;20280;-87
2022/02/21 12:12:25;;;;;;;6.13;2.57;;;7.10;71.50;;;;;;5040309;28;20652;-87
2022/02/21 12:15:11;;;;;;;4.97;2.67;;;7.00;75.10;;;;;;5037528;28;20188;-87
2022/02/21 12:17:36;;;;;;;6.57;2.30;;;6.90;75.50;;;;;;5034273;28;20192;-88
2022/02/21 12:20:28;;;;;;;5.60;2.00;;;7.00;73.40;;;;;;4999771;28;20208;-85
2022/02/21 12:23:05;;;;;;;6.97;2.57;;;7.10;71.80;;;;;;5026114;28;20243;-86
2022/02/21 12:25:38;;;;;;;4.10;2.53;;;7.10;72.00;;;;;;5033931;28;20193;-87
2022/02/21 12:28:21;;;;;;;8.03;3.33;;;7.10;73.10;;;;;;5034988;28;20193;-87
2022/02/21 12:30:49;;;;;;;5.77;2.23;;;7.20;74.70;;;;;;5038605;28;20239;-88
2022/02/21 12:33:41;;;;;;;6.03;2.17;;;7.10;71.30;;;;;;5036790;28;20235;-86
2022/02/21 12:36:08;;;;;;;7.10;2.57;;;7.10;71.70;;;;;;5035927;28;20600;-87
2022/02/21 12:38:38;;;;;;;7.60;2.37;;;7.10;71.30;;;;;;5034668;28;20189;-86
2022/02/21 12:41:08;;;;;;;4.77;1.97;;;7.10;71.50;;;;;;5038817;28;20205;-88
2022/02/21 12:43:55;;;;;;;7.63;2.40;;;7.20;71.30;;;;;;5020404;28;20242;-86
2022/02/21 12:46:26;;;;;;;5.73;2.20;;;7.10;73.30;;;;;;5016360;28;20201;-86
2022/02/21 12:48:52;;;;;;;5.97;2.23;;;7.10;73.40;;;;;;5039359;28;20193;-87
2022/02/21 12:51:19;;;;;;;5.27;2.00;;;7.10;76.30;;;;;;5035953;28;20205;-87
2022/02/21 12:53:52;;;;;;;6.97;2.40;;;7.20;71.40;;;;;;5038171;28;20715;-87
2022/02/21 12:56:18;;;;;;;6.67;2.43;;;7.20;72.40;;;;;;5037546;28;20200;-87
2022/02/21 12:58:49;;;;;;;4.87;2.47;;;7.20;70.70;;;;;;5033727;28;20184;-86
2022/02/21 13:01:18;;;;;;;6.70;1.67;;;7.10;73.60;;;;;;5036446;28;20228;-88
2022/02/21 13:03:56;;;;;;;6.40;2.33;;;7.20;74.00;;;;;;5019270;28;20229;-87
2022/02/21 13:06:23;;;;;;;6.27;2.37;;;7.10;73.50;;;;;;5037463;28;20200;-87
2022/02/21 13:08:49;;;;;;;5.33;2.30;;;7.10;73.20;;;;;;5041733;28;20687;-87
2022/02/21 13:11:32;;;;;;;5.40;2.40;;;7.10;72.30;;;;;;5045624;28;20189;-87
2022/02/21 13:13:59;;;;;;;5.30;1.90;;;7.20;70.80;;;;;;5023977;28;20275;-86
2022/02/21 13:16:28;;;;;;;4.73;1.97;;;7.20;71.80;;;;;;5038478;28;20204;-88
2022/02/21 13:18:59;;;;;;;4.00;1.70;;;7.20;72.20;;;;;;5040885;28;20280;-87
2022/02/21 13:21:44;;;;;;;5.30;1.90;;;7.20;73.10;;;;;;5036530;28;20286;-87
2022/02/21 13:24:12;;;;;;;6.17;2.20;;;7.20;73.60;;;;;;5017485;28;20211;-85
2022/02/21 13:26:56;;;;;;;3.27;2.00;;;7.10;74.70;;;;;;5019393;28;20184;-85
2022/02/21 13:29:41;;;;;;;2.23;1.83;;;7.00;75.70;;;;;;5034739;28;20201;-87
2022/02/21 13:32:29;;;;;;;5.00;2.07;;;7.00;76.00;;;;;;5014103;28;20607;-87